createdAt,value
2019-05-06T00:09:47.000Z,41.27
2019-05-06T00:30:04.000Z,41.27
2019-05-06T00:50:21.000Z,41.29
2019-05-06T01:10:38.000Z,41.27
2019-05-06T01:30:55.000Z,41.29
2019-05-06T01:51:11.000Z,41.29
2019-05-06T02:11:29.000Z,41.29
2019-05-06T02:31:46.000Z,41.38
2019-05-06T02:52:03.000Z,41.38
2019-05-06T03:12:20.000Z,41.49
2019-05-06T03:32:36.000Z,41.49
2019-05-06T03:52:53.000Z,41.49
2019-05-06T04:13:10.000Z,41.29
2019-05-06T04:33:27.000Z,41.08
2019-05-06T04:53:44.000Z,40.88
2019-05-06T05:14:01.000Z,40.75
2019-05-06T05:34:18.000Z,40.46
2019-05-06T05:54:35.000Z,40.24
2019-05-06T06:14:52.000Z,36.79
2019-05-06T06:35:09.000Z,33.75
2019-05-06T06:55:25.000Z,33.45
2019-05-06T07:15:42.000Z,35.32
2019-05-06T07:35:59.000Z,33.74
2019-05-06T07:56:16.000Z,34.06
2019-05-06T08:16:33.000Z,35.93
2019-05-06T08:36:50.000Z,35.96
2019-05-06T08:57:07.000Z,37.53
2019-05-06T09:17:24.000Z,37.99
2019-05-06T09:37:41.000Z,37.59
2019-05-06T09:57:58.000Z,36.49
2019-05-06T10:18:15.000Z,36.49
2019-05-06T10:38:31.000Z,37.32
2019-05-06T10:58:48.000Z,37.32
2019-05-06T11:19:05.000Z,36.59
2019-05-06T11:39:22.000Z,37.91
2019-05-06T11:59:39.000Z,37.16
2019-05-06T12:19:56.000Z,36.57
2019-05-06T12:40:13.000Z,36.04
2019-05-06T13:00:30.000Z,36.05
2019-05-06T13:20:47.000Z,35.84
2019-05-06T13:41:04.000Z,35.74
2019-05-06T14:01:20.000Z,35.34
2019-05-06T14:21:37.000Z,35.46
2019-05-06T14:41:54.000Z,34.82
2019-05-06T15:02:11.000Z,35.46
2019-05-06T15:22:28.000Z,36.07
2019-05-06T15:42:45.000Z,36.57
